createdAt,value
2017-12-27T00:01:32.016Z,96037.24
2017-12-27T00:04:06.916Z,96022.89
2017-12-27T00:06:40.976Z,96016.20
2017-12-27T00:12:26.643Z,95993.81
2017-12-27T00:15:00.997Z,96000.19
2017-12-27T00:20:17.096Z,95976.54
2017-12-27T00:22:50.396Z,95979.84
2017-12-27T00:25:23.576Z,95973.22
2017-12-27T00:27:57.956Z,95966.63
2017-12-27T00:30:31.303Z,95959.73
2017-12-27T00:32:58.999Z,95959.91
2017-12-27T00:35:26.711Z,95951.52
2017-12-27T00:37:54.892Z,95951.58
2017-12-27T00:40:22.521Z,95950.95
2017-12-27T00:42:52.031Z,95942.59
2017-12-27T00:45:19.906Z,95938.58
2017-12-27T00:47:48.665Z,95930.81
2017-12-27T00:50:21.910Z,95918.44
2017-12-27T00:52:49.916Z,95892.30
2017-12-27T00:55:17.448Z,95896.56
2017-12-27T00:57:45.888Z,95892.19
2017-12-27T01:00:13.887Z,95901.58
2017-12-27T01:02:41.548Z,95881.12
2017-12-27T01:05:10.003Z,95885.39
2017-12-27T01:07:37.642Z,95879.53
2017-12-27T01:10:06.211Z,95876.72
2017-12-27T01:12:33.950Z,95878.41
2017-12-27T01:15:01.634Z,95877.42
2017-12-27T01:17:29.328Z,95871.30
2017-12-27T01:19:57.241Z,95868.03
2017-12-27T01:22:24.961Z,95868.86
2017-12-27T01:24:52.568Z,95858.62
2017-12-27T01:27:20.295Z,95845.37
2017-12-27T01:29:47.930Z,95845.34
2017-12-27T01:32:15.642Z,95831.96
2017-12-27T01:34:43.307Z,95822.05
2017-12-27T01:37:12.122Z,95813.80
2017-12-27T01:39:40.746Z,95807.41
2017-12-27T01:42:10.426Z,95801.67
2017-12-27T01:44:38.328Z,95786.42
2017-12-27T01:47:14.533Z,95773.35
2017-12-27T01:49:43.171Z,95765.25
2017-12-27T01:52:11.888Z,95766.53
2017-12-27T01:54:41.353Z,95742.64
2017-12-27T01:57:09.831Z,95754.98
2017-12-27T01:59:37.677Z,95754.80
2017-12-27T02:02:05.346Z,95732.00
2017-12-27T02:04:33.086Z,95741.63
2017-12-27T02:07:00.829Z,95737.73
2017-12-27T02:09:28.483Z,95726.34
2017-12-27T02:11:56.144Z,95715.55
2017-12-27T02:14:23.943Z,95710.49
2017-12-27T02:16:51.607Z,95701.84
2017-12-27T02:19:19.130Z,95692.55
2017-12-27T02:21:46.825Z,95686.19
2017-12-27T02:24:17.319Z,95694.34
2017-12-27T02:26:44.943Z,95676.94
2017-12-27T02:29:13.405Z,95667.34
2017-12-27T02:31:42.236Z,95670.47
2017-12-27T02:34:09.855Z,95655.13
2017-12-27T02:36:37.412Z,95646.67
2017-12-27T02:39:04.981Z,95641.94
2017-12-27T02:41:32.589Z,95626.34
2017-12-27T02:44:00.209Z,95624.31
2017-12-27T02:46:27.742Z,95616.83
2017-12-27T02:48:55.252Z,95610.19
2017-12-27T02:51:22.908Z,95612.94
2017-12-27T02:53:50.529Z,95603.05
2017-12-27T02:56:18.125Z,95581.05
2017-12-27T02:58:45.646Z,95569.64
2017-12-27T03:01:13.902Z,95576.05
2017-12-27T03:03:42.518Z,95565.42
2017-12-27T03:06:10.237Z,95561.28
2017-12-27T03:08:37.872Z,95572.30
2017-12-27T03:11:05.401Z,95565.05
2017-12-27T03:13:32.947Z,95542.95
2017-12-27T03:16:00.484Z,95541.66
2017-12-27T03:18:28.497Z,95534.74
2017-12-27T03:20:56.142Z,95532.13
2017-12-27T03:23:23.677Z,95522.80
2017-12-27T03:25:51.268Z,95516.54
2017-12-27T03:28:19.629Z,95510.23
2017-12-27T03:30:49.954Z,95496.23
2017-12-27T03:33:18.610Z,95497.11
2017-12-27T03:35:49.238Z,95491.77
2017-12-27T03:38:17.352Z,95489.69
2017-12-27T03:40:47.778Z,95495.36
2017-12-27T03:43:16.086Z,95487.53
2017-12-27T03:45:43.607Z,95473.56
2017-12-27T03:48:12.225Z,95460.56
2017-12-27T03:50:39.842Z,95456.28
2017-12-27T03:53:07.398Z,95449.05
2017-12-27T03:55:34.917Z,95447.09
2017-12-27T03:58:02.420Z,95449.97
2017-12-27T04:00:30.029Z,95443.68
2017-12-27T04:02:57.559Z,95437.73
2017-12-27T04:05:26.024Z,95426.30
2017-12-27T04:07:53.681Z,95424.09
2017-12-27T04:10:21.237Z,95408.20
2017-12-27T04:12:48.836Z,95404.61
2017-12-27T04:15:17.224Z,95398.12
2017-12-27T04:17:44.757Z,95384.84
2017-12-27T04:20:12.285Z,95387.20
2017-12-27T04:22:39.843Z,95383.38
2017-12-27T04:25:07.404Z,95377.50
2017-12-27T04:27:36.012Z,95362.91
2017-12-27T04:30:07.861Z,95353.27
2017-12-27T04:32:37.494Z,95351.29
2017-12-27T04:35:06.297Z,95350.38
2017-12-27T04:37:38.135Z,95334.97
2017-12-27T04:40:05.717Z,95341.36
2017-12-27T04:42:34.159Z,95327.45
2017-12-27T04:45:02.297Z,95327.83
2017-12-27T04:47:31.673Z,95314.81
2017-12-27T04:50:02.044Z,95305.10
2017-12-27T04:52:30.330Z,95301.63
2017-12-27T04:54:57.867Z,95291.17
2017-12-27T04:57:25.524Z,95288.81
2017-12-27T04:59:53.624Z,95284.45
2017-12-27T05:02:21.392Z,95272.39
2017-12-27T05:04:49.995Z,95266.56
2017-12-27T05:07:18.170Z,95268.44
2017-12-27T05:09:46.430Z,95257.31
2017-12-27T05:12:14.035Z,95257.95
2017-12-27T05:14:41.618Z,95266.84
2017-12-27T05:17:09.843Z,95256.18
2017-12-27T05:19:37.577Z,95262.81
2017-12-27T05:22:06.071Z,95262.86
2017-12-27T05:24:34.530Z,95259.13
2017-12-27T05:27:02.126Z,95265.03
2017-12-27T05:29:29.766Z,95271.66
2017-12-27T05:31:57.383Z,95266.11
2017-12-27T05:34:25.637Z,95262.11
2017-12-27T05:36:53.277Z,95268.25
2017-12-27T05:39:22.314Z,95265.01
2017-12-27T05:41:51.278Z,95273.16
2017-12-27T05:44:19.230Z,95269.53
2017-12-27T05:46:47.217Z,95269.53
2017-12-27T05:49:14.905Z,95262.65
2017-12-27T05:51:43.157Z,95257.34
2017-12-27T05:54:10.705Z,95256.33
2017-12-27T05:56:38.332Z,95255.75
2017-12-27T05:59:06.778Z,95263.30
2017-12-27T06:01:34.384Z,95266.97
2017-12-27T06:04:01.946Z,95269.77
2017-12-27T06:06:30.506Z,95273.77
2017-12-27T06:08:58.572Z,95270.77
2017-12-27T06:11:26.189Z,95262.39
2017-12-27T06:13:53.807Z,95262.42
2017-12-27T06:16:22.789Z,95254.02
2017-12-27T06:18:51.238Z,95249.16
2017-12-27T06:21:18.875Z,95255.89
2017-12-27T06:23:46.544Z,95252.66
2017-12-27T06:26:15.449Z,95251.94
2017-12-27T06:28:43.036Z,95246.77
2017-12-27T06:31:10.762Z,95244.51
2017-12-27T06:33:38.325Z,95238.31
2017-12-27T06:36:05.859Z,95240.52
2017-12-27T06:38:34.125Z,95241.08
2017-12-27T06:41:01.605Z,95230.33
2017-12-27T06:46:03.236Z,95234.89
2017-12-27T06:48:30.835Z,95231.49
2017-12-27T06:50:59.043Z,95227.31
2017-12-27T06:53:26.683Z,95233.92
2017-12-27T06:55:54.716Z,95203.80
2017-12-27T06:58:23.349Z,95222.64
2017-12-27T07:00:52.530Z,95219.63
2017-12-27T07:03:20.074Z,95219.61
2017-12-27T07:05:47.734Z,95223.87
2017-12-27T07:08:15.525Z,95217.05
2017-12-27T07:10:43.079Z,95211.70
2017-12-27T07:13:11.636Z,95205.59
2017-12-27T07:15:39.092Z,95217.83
2017-12-27T07:18:06.567Z,95195.94
2017-12-27T07:20:34.020Z,95206.17
2017-12-27T07:23:01.491Z,95194.83
2017-12-27T07:25:29.039Z,95204.89
2017-12-27T07:27:56.602Z,95204.19
2017-12-27T07:30:24.323Z,95202.04
2017-12-27T07:32:51.814Z,95209.23
2017-12-27T07:35:19.516Z,95207.33
2017-12-27T07:37:47.916Z,95193.35
2017-12-27T07:40:15.488Z,95204.47
2017-12-27T07:42:43.115Z,95205.34
2017-12-27T07:45:10.737Z,95202.22
2017-12-27T07:47:38.303Z,95199.80
2017-12-27T07:50:06.000Z,95191.14
2017-12-27T07:52:33.739Z,95187.66
2017-12-27T07:55:01.245Z,95190.02
2017-12-27T07:57:28.873Z,95187.16
2017-12-27T07:59:59.517Z,95179.80
2017-12-27T08:02:27.243Z,95164.87
2017-12-27T08:04:55.104Z,95168.48
2017-12-27T08:07:22.656Z,95163.50
2017-12-27T08:09:50.204Z,95163.94
2017-12-27T08:12:17.707Z,95151.94
2017-12-27T08:14:45.204Z,95148.97
2017-12-27T08:17:12.742Z,95156.60
2017-12-27T08:19:40.291Z,95155.84
2017-12-27T08:22:07.820Z,95149.66
2017-12-27T08:24:35.376Z,95153.56
2017-12-27T08:27:02.876Z,95142.78
2017-12-27T08:29:30.481Z,95148.59
2017-12-27T08:31:58.315Z,95145.86
2017-12-27T08:34:26.163Z,95139.28
2017-12-27T08:36:53.778Z,95148.05
2017-12-27T08:39:21.276Z,95144.82
2017-12-27T08:41:48.840Z,95134.82
2017-12-27T08:44:16.330Z,95127.61
2017-12-27T08:46:44.614Z,95122.45
2017-12-27T08:49:12.136Z,95123.06
2017-12-27T08:51:39.727Z,95111.17
2017-12-27T08:54:09.684Z,95109.69
2017-12-27T08:56:38.980Z,95104.95
2017-12-27T08:59:06.519Z,95104.72
2017-12-27T09:01:34.023Z,95109.34
2017-12-27T09:04:01.626Z,95107.77
2017-12-27T09:06:29.566Z,95076.52
2017-12-27T09:08:57.710Z,95084.82
2017-12-27T09:11:29.720Z,95094.77
2017-12-27T09:13:57.785Z,95104.48
2017-12-27T09:16:25.327Z,95111.84
2017-12-27T09:18:53.043Z,95123.85
2017-12-27T09:21:20.581Z,95113.80
2017-12-27T09:23:48.615Z,95115.65
2017-12-27T09:26:16.187Z,95118.97
2017-12-27T09:28:43.773Z,95118.22
2017-12-27T09:31:11.494Z,95117.20
2017-12-27T09:33:39.051Z,95122.61
2017-12-27T09:36:06.594Z,95123.67
2017-12-27T09:38:34.161Z,95108.13
2017-12-27T09:41:02.949Z,95093.69
2017-12-27T09:43:31.768Z,95096.68
2017-12-27T09:46:00.427Z,95098.78
2017-12-27T09:48:27.905Z,95098.38
2017-12-27T09:50:55.473Z,95086.95
2017-12-27T09:53:23.394Z,95086.69
2017-12-27T09:55:51.010Z,95078.98
2017-12-27T09:58:18.598Z,95083.55
2017-12-27T10:00:46.097Z,95084.59
2017-12-27T10:03:14.805Z,95088.34
2017-12-27T10:05:43.662Z,95083.74
2017-12-27T10:08:11.404Z,95079.28
2017-12-27T10:10:39.443Z,95072.66
2017-12-27T10:13:10.877Z,95073.55
2017-12-27T10:15:38.632Z,95066.71
2017-12-27T10:18:07.297Z,94961.51
2017-12-27T10:20:34.885Z,95034.73
2017-12-27T10:23:04.039Z,95027.53
2017-12-27T10:25:32.222Z,95011.93
2017-12-27T10:28:00.408Z,95005.43
2017-12-27T10:30:28.733Z,94999.23
2017-12-27T10:33:00.814Z,94983.37
2017-12-27T10:35:28.389Z,94970.35
2017-12-27T10:37:55.960Z,94956.97
2017-12-27T10:40:23.638Z,94944.59
2017-12-27T10:42:51.610Z,94930.52
2017-12-27T10:45:20.081Z,94925.06
2017-12-27T10:47:48.044Z,94939.67
2017-12-27T10:50:15.706Z,94952.39
2017-12-27T10:52:43.389Z,94948.09
2017-12-27T10:55:12.726Z,94941.23
2017-12-27T10:57:40.620Z,94932.09
2017-12-27T11:00:08.117Z,94928.83
2017-12-27T11:02:36.448Z,94931.49
2017-12-27T11:05:04.117Z,94927.44
2017-12-27T11:07:32.161Z,94926.25
2017-12-27T11:09:59.671Z,94923.52
2017-12-27T11:12:27.493Z,94915.17
2017-12-27T11:14:55.057Z,94920.89
2017-12-27T11:17:22.635Z,94916.89
2017-12-27T11:19:50.240Z,94920.53
2017-12-27T11:22:17.755Z,94916.25
2017-12-27T11:24:46.603Z,94909.77
2017-12-27T11:27:14.151Z,94920.46
2017-12-27T11:29:41.960Z,94918.21
2017-12-27T11:32:11.169Z,94914.64
2017-12-27T11:34:40.028Z,94918.17
2017-12-27T11:37:08.053Z,94909.22
2017-12-27T11:39:36.001Z,94900.95
2017-12-27T11:42:07.597Z,94893.69
2017-12-27T11:44:36.579Z,94893.83
2017-12-27T11:47:05.711Z,94886.59
2017-12-27T11:49:38.390Z,94877.17
2017-12-27T11:52:07.851Z,94884.85
2017-12-27T11:54:46.289Z,94879.98
2017-12-27T11:57:13.829Z,94872.37
2017-12-27T11:59:41.484Z,94875.59
2017-12-27T12:02:09.071Z,94864.33
2017-12-27T12:04:36.954Z,94872.30
2017-12-27T12:07:05.604Z,94868.04
2017-12-27T12:09:36.096Z,94859.03
2017-12-27T12:12:05.360Z,94863.55
2017-12-27T12:14:36.596Z,94860.16
2017-12-27T12:17:08.762Z,94856.94
2017-12-27T12:19:38.263Z,94808.53
2017-12-27T12:22:06.703Z,94851.19
2017-12-27T12:24:34.792Z,94856.23
2017-12-27T12:27:02.338Z,94862.30
2017-12-27T12:29:29.792Z,94864.51
2017-12-27T12:31:57.585Z,94862.80
2017-12-27T12:34:25.103Z,94857.32
2017-12-27T12:36:52.778Z,94858.81
2017-12-27T12:39:20.840Z,94851.23
2017-12-27T12:41:51.132Z,94850.89
2017-12-27T12:44:20.737Z,94849.05
2017-12-27T12:46:51.409Z,94856.87
2017-12-27T12:49:20.629Z,94856.34
2017-12-27T12:51:49.852Z,94857.00
2017-12-27T12:54:18.651Z,94862.86
2017-12-27T12:56:46.797Z,94858.34
2017-12-27T12:59:14.738Z,94862.95
2017-12-27T13:01:44.540Z,94858.04
2017-12-27T13:04:14.523Z,94854.69
2017-12-27T13:06:47.093Z,94856.29
2017-12-27T13:09:15.905Z,94850.28
2017-12-27T13:12:00.030Z,94846.30
2017-12-27T13:14:30.651Z,94843.95
2017-12-27T13:16:58.713Z,94841.77
2017-12-27T13:19:30.136Z,94830.89
2017-12-27T13:22:15.601Z,94819.72
2017-12-27T13:24:49.549Z,94836.97
2017-12-27T13:27:21.781Z,94836.44
2017-12-27T13:29:55.987Z,94833.05
2017-12-27T13:32:24.734Z,94834.00
2017-12-27T13:34:54.443Z,94822.67
2017-12-27T13:37:23.204Z,94816.56
2017-12-27T13:39:52.821Z,94817.30
2017-12-27T13:42:23.220Z,94811.22
2017-12-27T13:47:42.316Z,94806.33
2017-12-27T13:50:12.111Z,94810.80
2017-12-27T13:52:48.052Z,94811.84
2017-12-27T13:55:17.307Z,94800.98
2017-12-27T13:57:46.037Z,94793.92
2017-12-27T14:00:16.868Z,94791.20
2017-12-27T14:02:44.483Z,94783.45
2017-12-27T14:05:12.020Z,94781.97
2017-12-27T14:07:40.212Z,94779.78
2017-12-27T14:10:08.475Z,94770.52
2017-12-27T14:12:36.129Z,94768.49
2017-12-27T14:15:03.640Z,94759.70
2017-12-27T14:17:31.130Z,94757.69
2017-12-27T14:19:58.818Z,94749.50
2017-12-27T14:22:26.357Z,94756.45
2017-12-27T14:24:54.095Z,94756.38
2017-12-27T14:27:21.595Z,94752.41
2017-12-27T14:29:49.224Z,94763.64
2017-12-27T14:32:17.162Z,94758.05
2017-12-27T14:34:44.646Z,94753.84
2017-12-27T14:37:12.230Z,94763.88
2017-12-27T14:39:40.183Z,94760.95
2017-12-27T14:42:07.731Z,94777.48
2017-12-27T14:44:35.823Z,94783.31
2017-12-27T14:47:03.343Z,94785.81
2017-12-27T14:49:30.967Z,94790.30
2017-12-27T14:51:58.712Z,94788.47
2017-12-27T14:54:26.204Z,94781.93
2017-12-27T14:56:53.781Z,94787.06
2017-12-27T14:59:21.327Z,94785.27
2017-12-27T15:01:48.786Z,94786.06
2017-12-27T15:04:16.292Z,94785.67
2017-12-27T15:06:43.831Z,94782.11
2017-12-27T15:09:15.328Z,94786.08
2017-12-27T15:11:43.114Z,94782.94
2017-12-27T15:14:11.049Z,94776.85
2017-12-27T15:16:38.513Z,94775.42
2017-12-27T15:19:06.131Z,94774.27
2017-12-27T15:21:33.618Z,94772.94
2017-12-27T15:24:01.093Z,94775.45
2017-12-27T15:26:28.628Z,94785.25
2017-12-27T15:28:56.178Z,94774.45
2017-12-27T15:31:23.675Z,94774.77
2017-12-27T15:33:52.711Z,94780.72
2017-12-27T15:36:20.264Z,94771.89
2017-12-27T15:38:47.760Z,94783.23
2017-12-27T15:41:15.712Z,94786.48
2017-12-27T15:43:44.058Z,94785.19
2017-12-27T15:46:12.223Z,94788.81
2017-12-27T15:48:39.749Z,94784.70
2017-12-27T15:51:07.694Z,94781.86
2017-12-27T15:53:37.519Z,94786.88
2017-12-27T15:56:05.857Z,94796.78
2017-12-27T15:58:33.776Z,94800.91
2017-12-27T16:01:01.739Z,94801.08
2017-12-27T16:03:29.224Z,94794.62
2017-12-27T16:05:56.741Z,94795.39
2017-12-27T16:08:24.388Z,94794.05
2017-12-27T16:10:52.092Z,94791.72
2017-12-27T16:27:54.852Z,94785.36
2017-12-27T16:30:22.580Z,94793.06
2017-12-27T16:32:51.098Z,94784.08
2017-12-27T16:35:18.861Z,94781.95
2017-12-27T16:37:47.299Z,94785.53
2017-12-27T16:40:16.989Z,94782.95
2017-12-27T16:42:45.590Z,94782.69
2017-12-27T16:45:13.097Z,94779.73
2017-12-27T16:47:40.848Z,94789.80
2017-12-27T16:50:08.323Z,94788.69
2017-12-27T16:52:35.821Z,94786.86
2017-12-27T16:55:03.484Z,94784.40
2017-12-27T16:57:31.080Z,94794.03
2017-12-27T16:59:58.617Z,94788.43
2017-12-27T17:02:26.150Z,94786.24
2017-12-27T17:04:53.700Z,94789.95
2017-12-27T17:07:21.493Z,94790.95
2017-12-27T17:09:48.967Z,94785.63
2017-12-27T17:12:17.078Z,94782.89
2017-12-27T17:14:44.692Z,94784.22
2017-12-27T17:17:12.284Z,94783.49
2017-12-27T17:19:39.812Z,94779.14
2017-12-27T17:22:07.458Z,94783.25
2017-12-27T17:24:35.380Z,94783.83
2017-12-27T17:27:03.045Z,94789.17
2017-12-27T17:29:30.704Z,94793.13
2017-12-27T17:31:58.876Z,94786.78
2017-12-27T17:34:26.808Z,94790.78
2017-12-27T17:36:54.292Z,94784.92
2017-12-27T17:39:21.745Z,94792.77
2017-12-27T17:41:49.402Z,94799.05
2017-12-27T17:44:17.148Z,94798.63
2017-12-27T17:46:44.868Z,94804.48
2017-12-27T17:49:12.328Z,94804.09
2017-12-27T17:51:39.927Z,94803.11
2017-12-27T17:54:07.431Z,94807.38
2017-12-27T17:56:36.028Z,94802.38
2017-12-27T17:59:03.520Z,94797.89
2017-12-27T18:01:31.083Z,94801.17
2017-12-27T18:03:58.767Z,94797.38
2017-12-27T18:06:26.258Z,94793.05
2017-12-27T18:08:53.812Z,94798.05
2017-12-27T18:11:21.303Z,94804.95
2017-12-27T18:13:48.784Z,94810.08
2017-12-27T18:16:16.340Z,94812.25
2017-12-27T18:18:43.859Z,94812.08
2017-12-27T18:21:11.559Z,94818.22
2017-12-27T18:23:39.153Z,94807.86
2017-12-27T18:26:06.647Z,94822.23
2017-12-27T18:28:34.687Z,94825.41
2017-12-27T18:31:02.358Z,94833.14
2017-12-27T18:33:29.883Z,94831.45
2017-12-27T18:35:57.555Z,94833.41
2017-12-27T18:38:25.098Z,94831.45
2017-12-27T18:40:52.556Z,94833.50
2017-12-27T18:43:20.049Z,94834.28
2017-12-27T18:45:47.577Z,94841.42
2017-12-27T18:48:15.639Z,94840.75
2017-12-27T18:50:43.196Z,94826.56
2017-12-27T18:53:10.721Z,94825.13
2017-12-27T18:55:38.204Z,94831.11
2017-12-27T18:58:05.795Z,94837.48
2017-12-27T19:00:33.353Z,94837.53
2017-12-27T19:03:00.898Z,94840.81
2017-12-27T19:05:28.711Z,94847.94
2017-12-27T19:07:56.191Z,94855.50
2017-12-27T19:10:23.712Z,94858.96
2017-12-27T19:12:51.250Z,94861.40
2017-12-27T19:15:18.883Z,94861.19
2017-12-27T19:17:46.934Z,94871.77
2017-12-27T19:20:15.005Z,94880.44
2017-12-27T19:22:42.628Z,94886.37
2017-12-27T19:25:10.129Z,94892.00
2017-12-27T19:27:38.508Z,94884.61
2017-12-27T19:30:06.023Z,94891.56
2017-12-27T19:32:33.708Z,94898.50
2017-12-27T19:35:01.864Z,94900.56
2017-12-27T19:37:29.569Z,94894.12
2017-12-27T19:39:57.182Z,94907.02
2017-12-27T19:42:24.764Z,94911.30
2017-12-27T19:44:52.427Z,94920.77
2017-12-27T19:47:19.930Z,94921.36
2017-12-27T19:49:47.455Z,94927.55
2017-12-27T19:52:18.576Z,94928.08
2017-12-27T19:54:46.308Z,94926.35
2017-12-27T19:57:14.032Z,94894.22
2017-12-27T19:59:41.527Z,94919.76
2017-12-27T20:02:10.175Z,94929.61
2017-12-27T20:04:37.759Z,94924.30
2017-12-27T20:07:05.288Z,94944.20
2017-12-27T20:09:32.863Z,94937.25
2017-12-27T20:12:00.386Z,94935.08
2017-12-27T20:14:28.526Z,94927.84
2017-12-27T20:16:56.723Z,94934.86
2017-12-27T20:19:24.471Z,94937.63
2017-12-27T20:21:52.127Z,94941.85
2017-12-27T20:24:19.903Z,94949.88
2017-12-27T20:26:47.557Z,94924.65
2017-12-27T20:29:16.226Z,94963.30
2017-12-27T20:31:44.198Z,94963.28
2017-12-27T20:34:12.158Z,94960.51
2017-12-27T20:36:40.188Z,94965.72
2017-12-27T20:39:08.182Z,94936.20
2017-12-27T20:41:36.322Z,94976.38
2017-12-27T20:44:04.272Z,94980.09
2017-12-27T20:46:32.647Z,94983.48
2017-12-27T20:49:02.342Z,94985.27
2017-12-27T20:51:30.764Z,94990.50
2017-12-27T20:53:59.170Z,94997.84
2017-12-27T20:56:27.181Z,94990.92
2017-12-27T20:58:55.344Z,94998.72
2017-12-27T21:01:23.455Z,95003.17
2017-12-27T21:03:51.203Z,95006.97
2017-12-27T21:06:19.232Z,95001.96
2017-12-27T21:08:48.046Z,95004.72
2017-12-27T21:11:16.188Z,95002.20
2017-12-27T21:13:44.004Z,95001.09
2017-12-27T21:16:12.228Z,95007.27
2017-12-27T21:18:39.986Z,95008.87
2017-12-27T21:21:07.897Z,95011.09
2017-12-27T21:23:35.389Z,95017.56
2017-12-27T21:26:03.102Z,95013.23
2017-12-27T21:28:30.876Z,95014.00
2017-12-27T21:30:59.193Z,95021.41
2017-12-27T21:33:26.676Z,95025.45
2017-12-27T21:35:54.183Z,95021.91
2017-12-27T21:38:21.707Z,95031.06
2017-12-27T21:40:49.397Z,95041.50
2017-12-27T21:43:17.947Z,95037.04
2017-12-27T21:45:45.457Z,95039.80
2017-12-27T21:48:18.497Z,95051.59
2017-12-27T21:50:46.813Z,95057.17
2017-12-27T21:53:15.087Z,95052.80
2017-12-27T21:55:42.787Z,95054.84
2017-12-27T22:01:31.280Z,95061.58
2017-12-27T22:03:58.775Z,95067.54
2017-12-27T22:06:26.264Z,95070.66
2017-12-27T22:08:53.730Z,95067.84
2017-12-27T22:11:21.203Z,95074.70
2017-12-27T22:13:49.470Z,95068.31
2017-12-27T22:16:16.946Z,95077.13
2017-12-27T22:18:44.589Z,95076.86
2017-12-27T22:21:12.274Z,95081.94
2017-12-27T22:23:39.861Z,95082.16
2017-12-27T22:26:07.365Z,95094.62
2017-12-27T22:28:34.881Z,95095.09
2017-12-27T22:31:02.554Z,95096.97
2017-12-27T22:33:31.303Z,95089.66
2017-12-27T22:35:58.815Z,95096.48
2017-12-27T22:38:26.338Z,95101.51
2017-12-27T22:40:54.074Z,95108.74
2017-12-27T22:43:21.975Z,95121.89
2017-12-27T22:45:50.198Z,95118.84
2017-12-27T22:48:17.697Z,95109.58
2017-12-27T22:50:45.326Z,95126.36
2017-12-27T22:53:12.814Z,95124.92
2017-12-27T22:55:40.268Z,95129.18
2017-12-27T22:58:07.764Z,95115.29
2017-12-27T23:00:35.289Z,95120.02
2017-12-27T23:03:02.922Z,95133.38
2017-12-27T23:05:30.398Z,95123.75
2017-12-27T23:07:57.897Z,95118.45
2017-12-27T23:10:25.367Z,95105.70
2017-12-27T23:12:53.007Z,95107.34
2017-12-27T23:15:20.814Z,95107.27
2017-12-27T23:17:48.312Z,95117.66
2017-12-27T23:20:16.502Z,95121.84
2017-12-27T23:22:43.978Z,95121.75
2017-12-27T23:25:11.445Z,95123.48
2017-12-27T23:27:38.916Z,95126.77
2017-12-27T23:30:06.387Z,95122.05
2017-12-27T23:32:34.032Z,95132.15
2017-12-27T23:35:02.263Z,95128.94
2017-12-27T23:37:29.878Z,95135.05
2017-12-27T23:39:57.362Z,95137.41
2017-12-27T23:42:24.825Z,95142.87
2017-12-27T23:44:52.816Z,95152.89
2017-12-27T23:47:20.419Z,95148.75
2017-12-27T23:49:48.077Z,95148.98
2017-12-27T23:52:15.610Z,95143.27
2017-12-27T23:54:43.061Z,95133.73
2017-12-27T23:57:10.544Z,95133.87
2017-12-27T23:59:38.051Z,95131.28
